Portada
METAR-TAF:

METAR-TAF

Aeroports :

Norwood Memorial Airport

Norwood, Massachusetts, Estats Units d'Amèrica

latitud: 42-11-27N, longitud: 071-10-26W, altitud: 15 m

Observació

L'informe es va fer fa 1 hora i 2 minuts, a les 12:53 UTC
Vent 11 kt del Nord amb ràfegues de 17 kt
Temperatura 3°C
Humitat 81%
Pressió 1014 hPa
Visibilitat: 2.4 km
Cel cobert a una alçada de 600 ft
pluja

METAR: KOWD 181253Z 36011G17KT 1 1/2SM -RA OVC006 03/00 A2993 RMK AO2 UPE22RAB10 CIG 004V011 SLP135 P0001 T00280000

Hora: 08:55 (13:55 UTC)


TAF: manca

Observacions i pronòstics meteorològics de més de 4000 aeroports (METAR i TAF).

Les estacions disponibles són els punts grocs i vermells al mapa.

Posi el ratolí al punt desitjat per veure el nom de l'estació.

Feu clic per veure les observacions i els pronòstics meteorològics.

Per canviar el mapa: feu clic els botons verds amb una creu de color negre per apropar; al botó verd amb un guió per allunyar la imatge; o en les fletxes verdes per a mapes adjacents.


METAR-TAF: